Time;durP1;ratioP1;P1;durP2;ratioP2;P2;SDS_P1;SDS_P2;PMS_P1;PMS_P2;Temp;Humidity;BMP_temperature;BMP_pressure;BME280_temperature;BME280_humidity;BME280_pressure;Samples;Min_cycle;Max_cycle;Signal;HPM_P1;HPM_P2
2023/06/09 00:01:58;;;;;;;12.60;4.40;;;;;;;;;;5016043;28;20377;-71
2023/06/09 00:04:26;;;;;;;10.80;3.85;;;;;;;;;;5019849;28;20206;-69
2023/06/09 00:06:52;;;;;;;12.23;4.10;;;;;;;;;;5017004;28;20028;-71
2023/06/09 00:09:20;;;;;;;11.75;3.75;;;;;;;;;;5000604;28;20053;-71
2023/06/09 00:11:46;;;;;;;13.60;4.50;;;;;;;;;;5022309;28;20403;-69
2023/06/09 00:14:12;;;;;;;14.23;4.43;;;;;;;;;;5021853;28;20555;-68
2023/06/09 00:16:38;;;;;;;13.32;4.50;;;;;;;;;;5018340;28;20037;-71
2023/06/09 00:19:08;;;;;;;14.77;4.38;;;;;;;;;;5020560;28;20036;-71
2023/06/09 00:21:37;;;;;;;12.05;4.20;;;;;;;;;;5019826;28;20029;-71
2023/06/09 00:24:03;;;;;;;12.90;4.45;;;;;;;;;;5019543;28;20583;-71
2023/06/09 00:26:29;;;;;;;16.27;4.80;;;;;;;;;;5003528;28;20040;-69
2023/06/09 00:28:56;;;;;;;11.73;3.90;;;;;;;;;;5004610;28;20021;-69
2023/06/09 00:31:22;;;;;;;12.98;3.67;;;;;;;;;;5018024;28;20024;-69
2023/06/09 00:33:48;;;;;;;13.02;4.38;;;;;;;;;;5023768;28;20111;-69
2023/06/09 00:36:14;;;;;;;13.75;4.57;;;;;;;;;;5019770;28;20044;-69
2023/06/09 00:38:41;;;;;;;12.70;4.10;;;;;;;;;;5017981;28;20028;-69
2023/06/09 00:41:07;;;;;;;11.65;3.80;;;;;;;;;;5021738;28;20032;-70
2023/06/09 00:43:33;;;;;;;12.15;4.03;;;;;;;;;;5018635;28;20068;-69
2023/06/09 00:46:01;;;;;;;12.35;3.70;;;;;;;;;;5006398;28;20566;-69
2023/06/09 00:48:27;;;;;;;10.38;3.38;;;;;;;;;;5015893;28;20064;-69
2023/06/09 00:50:55;;;;;;;12.85;4.20;;;;;;;;;;5004073;28;20514;-69
2023/06/09 00:53:21;;;;;;;13.50;4.45;;;;;;;;;;5015320;28;20431;-69
2023/06/09 00:55:47;;;;;;;13.48;3.83;;;;;;;;;;5004810;28;20041;-69
2023/06/09 00:58:14;;;;;;;13.32;4.10;;;;;;;;;;5020819;28;20515;-69
2023/06/09 01:00:41;;;;;;;11.10;4.03;;;;;;;;;;5019128;28;20505;-69
2023/06/09 01:03:09;;;;;;;12.38;4.10;;;;;;;;;;5018639;28;20102;-69
2023/06/09 01:05:37;;;;;;;11.38;3.42;;;;;;;;;;5017259;28;20029;-69
2023/06/09 01:08:09;;;;;;;12.35;3.72;;;;;;;;;;5021631;28;20025;-69
2023/06/09 01:10:43;;;;;;;13.30;3.63;;;;;;;;;;5019352;28;20032;-70
2023/06/09 01:13:27;;;;;;;11.38;3.92;;;;;;;;;;5020357;28;20033;-69
2023/06/09 01:15:58;;;;;;;15.45;3.88;;;;;;;;;;5020686;28;20479;-69
2023/06/09 01:18:25;;;;;;;12.68;3.63;;;;;;;;;;5002873;28;20499;-69
2023/06/09 01:20:56;;;;;;;13.07;3.70;;;;;;;;;;5005810;28;20068;-69
2023/06/09 01:23:32;;;;;;;10.25;3.35;;;;;;;;;;5016575;28;20025;-69
2023/06/09 01:25:59;;;;;;;12.05;4.38;;;;;;;;;;5022308;28;20040;-69
2023/06/09 01:28:26;;;;;;;12.43;3.95;;;;;;;;;;5002184;28;20522;-69
2023/06/09 01:30:53;;;;;;;12.65;3.95;;;;;;;;;;5005789;28;20059;-69
2023/06/09 01:33:21;;;;;;;16.60;5.13;;;;;;;;;;5014357;28;20052;-69
2023/06/09 01:35:48;;;;;;;12.38;3.88;;;;;;;;;;5016501;28;20033;-70
2023/06/09 01:38:14;;;;;;;13.18;5.05;;;;;;;;;;5016084;28;20053;-69
2023/06/09 01:40:41;;;;;;;11.93;4.32;;;;;;;;;;5013705;28;20547;-69
2023/06/09 01:43:07;;;;;;;12.70;3.95;;;;;;;;;;5017914;28;20045;-69
2023/06/09 01:45:34;;;;;;;12.93;3.95;;;;;;;;;;5001282;28;20566;-69
2023/06/09 01:48:03;;;;;;;11.75;3.55;;;;;;;;;;5017640;28;20499;-69
2023/06/09 01:50:37;;;;;;;15.20;3.88;;;;;;;;;;5002377;28;20470;-69
2023/06/09 01:53:10;;;;;;;10.95;3.78;;;;;;;;;;5021766;28;20385;-70
2023/06/09 01:55:39;;;;;;;10.98;3.80;;;;;;;;;;5016257;28;20086;-69
2023/06/09 01:58:08;;;;;;;11.85;3.97;;;;;;;;;;5018264;28;20275;-69
2023/06/09 02:00:34;;;;;;;12.80;4.07;;;;;;;;;;5013927;28;20728;-69
2023/06/09 02:03:01;;;;;;;11.32;3.72;;;;;;;;;;5002339;28;20127;-70
2023/06/09 02:05:29;;;;;;;12.65;3.67;;;;;;;;;;5017407;28;20502;-69
2023/06/09 02:07:56;;;;;;;11.75;3.63;;;;;;;;;;5020205;28;20021;-69
2023/06/09 02:10:23;;;;;;;9.13;2.90;;;;;;;;;;5004766;28;20500;-71
2023/06/09 02:12:49;;;;;;;10.60;3.33;;;;;;;;;;5019018;28;20385;-69
2023/06/09 02:15:15;;;;;;;11.25;3.40;;;;;;;;;;5004065;28;20037;-69
2023/06/09 02:17:42;;;;;;;11.27;3.78;;;;;;;;;;5015448;28;20029;-70
2023/06/09 02:20:08;;;;;;;13.23;4.00;;;;;;;;;;5020305;28;20044;-70
2023/06/09 02:22:35;;;;;;;9.45;3.30;;;;;;;;;;5002908;28;20449;-69
2023/06/09 02:25:01;;;;;;;11.35;3.63;;;;;;;;;;5018426;28;20029;-69
2023/06/09 02:27:27;;;;;;;13.45;3.40;;;;;;;;;;5018860;28;20033;-69
2023/06/09 02:29:54;;;;;;;12.32;3.40;;;;;;;;;;5002403;28;20036;-70
2023/06/09 02:32:20;;;;;;;9.85;3.10;;;;;;;;;;5002634;28;20060;-72
2023/06/09 02:34:46;;;;;;;11.95;3.10;;;;;;;;;;5019511;28;20040;-69
2023/06/09 02:37:12;;;;;;;9.90;3.20;;;;;;;;;;5021311;28;20028;-70
2023/06/09 02:39:39;;;;;;;10.93;3.60;;;;;;;;;;5021916;28;20185;-71
2023/06/09 02:42:05;;;;;;;12.57;3.42;;;;;;;;;;5023070;28;20484;-69
2023/06/09 02:44:32;;;;;;;9.98;3.45;;;;;;;;;;4999942;28;20037;-69
2023/06/09 02:46:59;;;;;;;9.73;3.08;;;;;;;;;;5022441;28;20047;-69
2023/06/09 02:49:25;;;;;;;9.40;2.85;;;;;;;;;;5017420;28;20542;-71
2023/06/09 02:51:52;;;;;;;11.35;3.22;;;;;;;;;;5020208;28;20069;-69
2023/06/09 02:54:18;;;;;;;13.52;3.80;;;;;;;;;;5015359;28;20033;-71
2023/06/09 02:56:44;;;;;;;16.38;3.85;;;;;;;;;;5009208;28;20348;-71
2023/06/09 02:59:10;;;;;;;13.13;3.28;;;;;;;;;;5005486;28;20043;-69
2023/06/09 03:01:37;;;;;;;9.95;2.97;;;;;;;;;;5017409;28;21069;-69
2023/06/09 03:04:07;;;;;;;13.75;3.97;;;;;;;;;;5019618;28;20029;-71
2023/06/09 03:06:36;;;;;;;11.90;3.63;;;;;;;;;;5000794;28;20601;-71
2023/06/09 03:09:03;;;;;;;11.35;2.70;;;;;;;;;;5006200;28;20539;-71
2023/06/09 03:11:32;;;;;;;10.35;2.97;;;;;;;;;;5022097;28;20820;-71
2023/06/09 03:13:58;;;;;;;8.63;2.80;;;;;;;;;;5006987;28;20029;-71
2023/06/09 03:16:25;;;;;;;9.60;2.78;;;;;;;;;;5017810;28;20033;-71
2023/06/09 03:18:51;;;;;;;9.45;2.60;;;;;;;;;;5018578;28;20025;-71
2023/06/09 03:21:18;;;;;;;10.23;2.80;;;;;;;;;;5021031;28;20132;-72
2023/06/09 03:23:44;;;;;;;11.43;3.10;;;;;;;;;;5021351;28;20028;-69
2023/06/09 03:26:10;;;;;;;8.65;2.80;;;;;;;;;;5017041;28;20546;-70
2023/06/09 03:28:37;;;;;;;8.95;2.83;;;;;;;;;;5020848;28;23044;-70
2023/06/09 03:31:03;;;;;;;9.95;3.03;;;;;;;;;;5018789;28;20029;-70
2023/06/09 03:33:30;;;;;;;12.55;3.50;;;;;;;;;;5018966;28;20047;-70
2023/06/09 03:35:56;;;;;;;13.50;3.60;;;;;;;;;;5021929;28;20063;-70
2023/06/09 03:38:22;;;;;;;10.05;3.63;;;;;;;;;;5001799;28;20174;-70
2023/06/09 03:40:49;;;;;;;10.98;2.80;;;;;;;;;;5023960;28;20094;-70
2023/06/09 03:43:15;;;;;;;10.10;3.20;;;;;;;;;;5022552;28;20553;-70
2023/06/09 03:45:41;;;;;;;11.85;3.25;;;;;;;;;;5017221;28;20027;-70
2023/06/09 03:48:07;;;;;;;14.23;3.90;;;;;;;;;;5006405;28;20453;-70
2023/06/09 03:50:34;;;;;;;13.02;3.78;;;;;;;;;;5017469;28;20068;-70
2023/06/09 03:53:00;;;;;;;10.82;3.20;;;;;;;;;;5006004;28;20496;-70
2023/06/09 03:55:29;;;;;;;10.82;3.33;;;;;;;;;;5020275;28;20114;-70
2023/06/09 03:57:55;;;;;;;9.52;2.78;;;;;;;;;;5021706;28;20454;-70
2023/06/09 04:00:22;;;;;;;9.35;3.13;;;;;;;;;;5016927;28;20115;-70
2023/06/09 04:02:48;;;;;;;10.20;3.00;;;;;;;;;;5021984;28;20037;-70
2023/06/09 04:05:15;;;;;;;12.98;3.53;;;;;;;;;;5020991;28;20139;-70
2023/06/09 04:07:42;;;;;;;10.95;3.33;;;;;;;;;;5014988;28;20078;-70
2023/06/09 04:10:08;;;;;;;11.55;3.30;;;;;;;;;;5007620;28;20450;-70
2023/06/09 04:12:35;;;;;;;12.07;3.30;;;;;;;;;;4999690;28;20553;-70
2023/06/09 04:15:01;;;;;;;10.80;2.75;;;;;;;;;;5019908;28;20120;-70
2023/06/09 04:17:27;;;;;;;9.60;3.08;;;;;;;;;;5007565;28;20452;-70
2023/06/09 04:19:54;;;;;;;10.38;3.13;;;;;;;;;;5021664;28;20114;-70
2023/06/09 04:22:21;;;;;;;12.07;3.33;;;;;;;;;;5019835;28;20036;-70
2023/06/09 04:24:47;;;;;;;10.98;3.20;;;;;;;;;;5022531;28;20024;-70
2023/06/09 04:27:15;;;;;;;14.02;4.03;;;;;;;;;;5005614;28;20114;-70
2023/06/09 04:29:44;;;;;;;13.32;3.60;;;;;;;;;;5003748;28;20640;-70
2023/06/09 04:32:11;;;;;;;12.27;3.22;;;;;;;;;;5021572;28;20790;-70
2023/06/09 04:34:40;;;;;;;11.07;3.00;;;;;;;;;;5000000;28;20634;-69
2023/06/09 04:37:08;;;;;;;10.82;2.97;;;;;;;;;;5020786;28;20040;-69
2023/06/09 04:39:35;;;;;;;12.45;3.40;;;;;;;;;;5000726;28;20033;-71
2023/06/09 04:42:03;;;;;;;13.15;3.72;;;;;;;;;;5017300;28;20045;-71
2023/06/09 04:44:32;;;;;;;10.55;2.95;;;;;;;;;;5002328;28;20034;-69
2023/06/09 04:46:58;;;;;;;8.90;2.40;;;;;;;;;;5019695;28;20025;-72
2023/06/09 04:49:25;;;;;;;10.45;3.00;;;;;;;;;;5015722;28;20026;-71
2023/06/09 04:51:51;;;;;;;11.20;2.63;;;;;;;;;;5022683;28;20060;-71
2023/06/09 04:54:18;;;;;;;9.80;2.47;;;;;;;;;;5017211;28;20349;-71
2023/06/09 04:56:49;;;;;;;14.95;3.50;;;;;;;;;;5005528;28;20063;-71
2023/06/09 04:59:15;;;;;;;11.18;3.55;;;;;;;;;;5007153;28;20032;-71
2023/06/09 05:01:47;;;;;;;13.55;3.83;;;;;;;;;;5017049;28;20044;-71
2023/06/09 05:04:13;;;;;;;13.18;3.55;;;;;;;;;;5001179;28;20056;-70
2023/06/09 05:06:40;;;;;;;10.48;2.78;;;;;;;;;;5017062;28;20348;-70
2023/06/09 05:09:07;;;;;;;11.23;3.03;;;;;;;;;;5023458;28;20027;-69
2023/06/09 05:11:34;;;;;;;10.55;3.15;;;;;;;;;;5020817;28;20044;-69
2023/06/09 05:14:00;;;;;;;10.55;3.25;;;;;;;;;;5008568;28;20028;-70
2023/06/09 05:16:28;;;;;;;11.93;3.40;;;;;;;;;;5002344;28;20044;-69
2023/06/09 05:18:54;;;;;;;11.73;3.60;;;;;;;;;;5006428;28;20024;-70
2023/06/09 05:21:21;;;;;;;12.35;3.60;;;;;;;;;;5016277;28;20384;-69
2023/06/09 05:23:48;;;;;;;10.77;2.80;;;;;;;;;;5023272;28;20040;-70
2023/06/09 05:26:15;;;;;;;12.88;3.38;;;;;;;;;;5019199;28;20348;-69
2023/06/09 05:28:41;;;;;;;13.13;3.30;;;;;;;;;;5015524;28;20033;-70
2023/06/09 05:31:07;;;;;;;11.80;3.03;;;;;;;;;;5000619;28;20052;-70
2023/06/09 05:33:33;;;;;;;9.48;3.00;;;;;;;;;;5018485;28;20045;-72
2023/06/09 05:36:01;;;;;;;12.57;3.50;;;;;;;;;;5020894;28;20914;-69
2023/06/09 05:38:27;;;;;;;11.63;3.58;;;;;;;;;;5018357;28;20020;-69
2023/06/09 05:40:54;;;;;;;15.10;3.95;;;;;;;;;;5018171;28;20035;-69
2023/06/09 05:43:20;;;;;;;11.98;3.60;;;;;;;;;;5001922;28;20697;-70
2023/06/09 05:45:46;;;;;;;12.65;4.10;;;;;;;;;;5020908;28;20339;-69
2023/06/09 05:48:12;;;;;;;15.77;4.30;;;;;;;;;;5019889;28;20041;-69
2023/06/09 05:50:39;;;;;;;20.25;11.52;;;;;;;;;;5019976;28;20524;-72
2023/06/09 05:53:06;;;;;;;15.65;7.60;;;;;;;;;;5001928;28;20376;-69
2023/06/09 05:55:32;;;;;;;13.88;4.85;;;;;;;;;;5003090;28;20284;-69
2023/06/09 05:58:00;;;;;;;15.68;5.47;;;;;;;;;;5016146;28;20928;-70
2023/06/09 06:00:29;;;;;;;15.20;4.82;;;;;;;;;;5012660;28;20165;-70
2023/06/09 06:03:00;;;;;;;14.90;5.07;;;;;;;;;;5017679;28;20040;-70
2023/06/09 06:05:26;;;;;;;12.48;4.55;;;;;;;;;;5016047;28;20148;-69
2023/06/09 06:07:52;;;;;;;17.83;4.10;;;;;;;;;;5017507;28;20006;-71
2023/06/09 06:10:18;;;;;;;14.70;3.75;;;;;;;;;;5018165;28;20036;-69
2023/06/09 06:12:45;;;;;;;14.15;4.65;;;;;;;;;;5021138;28;20439;-70
2023/06/09 06:15:11;;;;;;;14.18;4.43;;;;;;;;;;5003056;28;20029;-69
2023/06/09 06:17:37;;;;;;;12.55;4.30;;;;;;;;;;5018554;28;21899;-69
2023/06/09 06:20:05;;;;;;;12.30;4.60;;;;;;;;;;5020969;28;20128;-69
2023/06/09 06:22:31;;;;;;;15.48;4.13;;;;;;;;;;5016509;28;20187;-69
2023/06/09 06:24:58;;;;;;;14.45;4.43;;;;;;;;;;5017739;28;20037;-69
2023/06/09 06:27:24;;;;;;;16.95;4.45;;;;;;;;;;5016981;28;20205;-69
2023/06/09 06:29:50;;;;;;;16.15;4.82;;;;;;;;;;5003301;28;20695;-69
2023/06/09 06:32:16;;;;;;;17.13;5.10;;;;;;;;;;5008640;28;20531;-69
2023/06/09 06:34:43;;;;;;;13.75;4.78;;;;;;;;;;5016978;28;20037;-69
2023/06/09 06:37:09;;;;;;;16.60;3.80;;;;;;;;;;5017788;28;20552;-69
2023/06/09 06:39:35;;;;;;;14.88;4.63;;;;;;;;;;5016469;28;20033;-71
2023/06/09 06:42:01;;;;;;;15.50;4.65;;;;;;;;;;5019233;28;20370;-71
2023/06/09 06:44:27;;;;;;;16.27;5.30;;;;;;;;;;5004683;28;20059;-71
2023/06/09 06:46:53;;;;;;;17.38;3.97;;;;;;;;;;5007234;28;20474;-69
2023/06/09 06:49:20;;;;;;;11.85;3.33;;;;;;;;;;5006626;28;20107;-71
2023/06/09 06:51:46;;;;;;;14.95;4.18;;;;;;;;;;5022158;28;20416;-71
2023/06/09 06:54:12;;;;;;;12.52;4.00;;;;;;;;;;5022389;28;20112;-71
2023/06/09 06:56:38;;;;;;;13.10;3.92;;;;;;;;;;5004099;28;20042;-71
2023/06/09 06:59:04;;;;;;;12.32;3.92;;;;;;;;;;5022026;28;20043;-71
2023/06/09 07:01:32;;;;;;;14.98;4.45;;;;;;;;;;5017588;28;20025;-71
2023/06/09 07:03:58;;;;;;;17.65;4.10;;;;;;;;;;5005234;28;20044;-71
2023/06/09 07:06:25;;;;;;;17.83;4.68;;;;;;;;;;5016874;28;20037;-71
2023/06/09 07:08:54;;;;;;;18.25;4.50;;;;;;;;;;5004361;28;20198;-71
2023/06/09 07:11:21;;;;;;;16.33;4.40;;;;;;;;;;5021839;28;20112;-71
2023/06/09 07:13:47;;;;;;;20.00;5.15;;;;;;;;;;5022987;28;20029;-71
2023/06/09 07:16:13;;;;;;;16.88;5.50;;;;;;;;;;5022082;28;20091;-69
2023/06/09 07:18:40;;;;;;;17.33;4.97;;;;;;;;;;5020067;28;20326;-71
2023/06/09 07:21:06;;;;;;;14.93;5.30;;;;;;;;;;5020548;28;20167;-70
2023/06/09 07:23:32;;;;;;;15.13;5.10;;;;;;;;;;5006250;28;20588;-70
2023/06/09 07:25:58;;;;;;;14.63;5.00;;;;;;;;;;5007288;28;20491;-70
2023/06/09 07:28:24;;;;;;;12.40;4.70;;;;;;;;;;5018957;28;20115;-69
2023/06/09 07:30:51;;;;;;;12.80;4.28;;;;;;;;;;5020455;28;20037;-70
2023/06/09 07:33:17;;;;;;;17.23;4.80;;;;;;;;;;5023299;28;20552;-69
2023/06/09 07:35:43;;;;;;;13.80;4.18;;;;;;;;;;5019381;28;20087;-69
2023/06/09 07:38:11;;;;;;;15.38;4.40;;;;;;;;;;5006243;28;20037;-69
2023/06/09 07:40:37;;;;;;;9.70;3.55;;;;;;;;;;5016978;28;21291;-69
2023/06/09 07:43:03;;;;;;;13.80;3.92;;;;;;;;;;5018743;28;20029;-70
2023/06/09 07:45:30;;;;;;;17.92;4.05;;;;;;;;;;5022247;28;20040;-70
2023/06/09 07:47:57;;;;;;;13.85;4.03;;;;;;;;;;5005097;28;20041;-71
2023/06/09 07:50:23;;;;;;;16.17;4.15;;;;;;;;;;5017841;28;20028;-70
2023/06/09 07:52:49;;;;;;;14.35;4.15;;;;;;;;;;5004114;28;20563;-70
2023/06/09 07:55:15;;;;;;;13.25;4.18;;;;;;;;;;5008536;28;20025;-70
2023/06/09 07:57:42;;;;;;;13.55;4.45;;;;;;;;;;5017294;28;20032;-71
2023/06/09 08:00:09;;;;;;;11.90;3.70;;;;;;;;;;5002280;28;20064;-71
2023/06/09 08:02:40;;;;;;;15.45;3.95;;;;;;;;;;5012256;28;20557;-71
2023/06/09 08:05:06;;;;;;;14.27;3.83;;;;;;;;;;5017782;28;20561;-70
2023/06/09 08:07:33;;;;;;;16.42;4.72;;;;;;;;;;5016578;28;20328;-70
2023/06/09 08:09:59;;;;;;;16.85;4.13;;;;;;;;;;5006972;28;20036;-71
2023/06/09 08:12:25;;;;;;;13.15;4.55;;;;;;;;;;5013351;28;20029;-71
2023/06/09 08:14:51;;;;;;;13.25;4.43;;;;;;;;;;5021062;28;20037;-71
2023/06/09 08:17:18;;;;;;;15.65;4.40;;;;;;;;;;5015882;28;20475;-71
2023/06/09 08:19:44;;;;;;;14.23;4.70;;;;;;;;;;5021936;28;20063;-70
2023/06/09 08:22:10;;;;;;;19.20;4.63;;;;;;;;;;5000896;28;20439;-71
2023/06/09 08:24:36;;;;;;;14.90;4.00;;;;;;;;;;5016708;28;20029;-70
2023/06/09 08:27:02;;;;;;;15.63;4.30;;;;;;;;;;5005708;28;20031;-70
2023/06/09 08:29:28;;;;;;;18.70;4.75;;;;;;;;;;5015954;28;20044;-71
2023/06/09 08:31:55;;;;;;;17.95;4.75;;;;;;;;;;5004961;28;20358;-70
2023/06/09 08:34:21;;;;;;;18.17;4.30;;;;;;;;;;4998378;28;20098;-70
2023/06/09 08:36:47;;;;;;;14.68;4.10;;;;;;;;;;4994061;28;20695;-70
2023/06/09 08:39:14;;;;;;;14.73;4.07;;;;;;;;;;4997684;28;20724;-69
2023/06/09 08:41:43;;;;;;;15.10;4.20;;;;;;;;;;4996370;28;20048;-70
2023/06/09 08:44:09;;;;;;;21.98;4.07;;;;;;;;;;4997721;28;20038;-70
2023/06/09 08:46:36;;;;;;;14.13;4.20;;;;;;;;;;4993893;28;20065;-70
2023/06/09 08:49:02;;;;;;;11.52;3.85;;;;;;;;;;4998367;28;20542;-70
2023/06/09 08:51:29;;;;;;;14.27;4.13;;;;;;;;;;4997817;28;20479;-69
2023/06/09 08:53:55;;;;;;;11.82;3.80;;;;;;;;;;5000100;28;20439;-70
2023/06/09 08:56:22;;;;;;;14.35;3.97;;;;;;;;;;4994899;28;20098;-70
2023/06/09 08:58:49;;;;;;;13.77;4.30;;;;;;;;;;4997395;28;20028;-70
2023/06/09 09:01:20;;;;;;;16.38;3.90;;;;;;;;;;5001537;28;20075;-69
2023/06/09 09:03:50;;;;;;;13.18;3.45;;;;;;;;;;4999254;28;20040;-69
2023/06/09 09:06:16;;;;;;;11.25;3.50;;;;;;;;;;5000996;28;20041;-69
2023/06/09 09:08:46;;;;;;;14.57;3.90;;;;;;;;;;4998827;28;20045;-69
2023/06/09 09:11:13;;;;;;;16.42;4.15;;;;;;;;;;4999275;28;20826;-69
2023/06/09 09:13:42;;;;;;;13.85;3.50;;;;;;;;;;4994072;28;20025;-69
2023/06/09 09:16:15;;;;;;;14.95;3.50;;;;;;;;;;4999819;28;20033;-69
2023/06/09 09:18:48;;;;;;;10.60;3.15;;;;;;;;;;4999632;28;20021;-70
2023/06/09 09:21:22;;;;;;;13.30;3.63;;;;;;;;;;5013589;28;20805;-72
2023/06/09 09:23:55;;;;;;;14.48;3.25;;;;;;;;;;5001572;28;20062;-68
2023/06/09 09:26:27;;;;;;;13.30;3.40;;;;;;;;;;4996959;28;20372;-71
2023/06/09 09:28:55;;;;;;;11.98;3.00;;;;;;;;;;4998184;28;20025;-69
2023/06/09 09:31:22;;;;;;;12.98;3.50;;;;;;;;;;4995592;28;20418;-70
2023/06/09 09:33:49;;;;;;;14.05;3.53;;;;;;;;;;5004916;28;21395;-70
2023/06/09 09:36:15;;;;;;;16.17;3.60;;;;;;;;;;5018236;28;20052;-70
2023/06/09 09:38:46;;;;;;;14.50;3.70;;;;;;;;;;5017353;28;20442;-69
2023/06/09 09:41:15;;;;;;;12.55;3.10;;;;;;;;;;5017309;28;20063;-69
2023/06/09 09:43:46;;;;;;;13.35;3.33;;;;;;;;;;5018580;28;20449;-68
2023/06/09 09:46:12;;;;;;;13.63;3.65;;;;;;;;;;5005575;28;20095;-69
2023/06/09 09:48:39;;;;;;;12.32;3.58;;;;;;;;;;5002942;28;20604;-69
2023/06/09 09:51:06;;;;;;;12.80;3.30;;;;;;;;;;5019494;28;20576;-71
2023/06/09 09:53:32;;;;;;;17.20;3.80;;;;;;;;;;5001030;28;21039;-69
2023/06/09 09:56:00;;;;;;;14.73;3.63;;;;;;;;;;5019439;28;20128;-69
2023/06/09 09:58:31;;;;;;;10.50;3.15;;;;;;;;;;4996076;28;20148;-68
2023/06/09 10:00:59;;;;;;;12.13;3.28;;;;;;;;;;5018309;28;20027;-71
2023/06/09 10:03:25;;;;;;;13.85;3.83;;;;;;;;;;4999302;28;20927;-71
2023/06/09 10:05:54;;;;;;;13.70;3.35;;;;;;;;;;5018640;28;20442;-68
2023/06/09 10:08:21;;;;;;;14.88;3.80;;;;;;;;;;5001403;28;20029;-68
2023/06/09 10:10:48;;;;;;;14.65;3.85;;;;;;;;;;5004691;28;20037;-69
2023/06/09 10:13:15;;;;;;;16.88;4.03;;;;;;;;;;5020286;28;20033;-68
2023/06/09 10:15:44;;;;;;;14.93;3.15;;;;;;;;;;5016909;28;20035;-69
2023/06/09 10:18:13;;;;;;;17.27;3.83;;;;;;;;;;5019604;28;20556;-68
2023/06/09 10:20:42;;;;;;;12.77;3.97;;;;;;;;;;5002424;28;20044;-69
2023/06/09 10:23:09;;;;;;;14.80;3.65;;;;;;;;;;5004847;28;20318;-68
2023/06/09 10:25:35;;;;;;;14.05;3.65;;;;;;;;;;5019617;28;20139;-68
2023/06/09 10:28:01;;;;;;;14.60;3.60;;;;;;;;;;5020388;28;20040;-68
2023/06/09 10:30:28;;;;;;;14.02;3.65;;;;;;;;;;5016118;28;20123;-69
2023/06/09 10:32:57;;;;;;;14.85;3.63;;;;;;;;;;5001971;28;20047;-68
2023/06/09 10:35:28;;;;;;;12.65;3.38;;;;;;;;;;5013274;28;20036;-68
2023/06/09 10:37:56;;;;;;;12.85;3.22;;;;;;;;;;5017601;28;20024;-68
2023/06/09 10:40:39;;;;;;;15.30;3.78;;;;;;;;;;4999636;28;20121;-70
2023/06/09 10:43:23;;;;;;;15.02;3.75;;;;;;;;;;5019004;28;20553;-70
2023/06/09 10:45:54;;;;;;;14.65;3.47;;;;;;;;;;5017243;28;20037;-70
2023/06/09 10:48:55;;;;;;;12.75;3.47;;;;;;;;;;5013479;28;20033;-69
2023/06/09 10:51:27;;;;;;;13.38;3.35;;;;;;;;;;4956992;28;20050;-69
2023/06/09 10:54:09;;;;;;;14.65;3.70;;;;;;;;;;4960467;28;20045;-69
2023/06/09 10:56:36;;;;;;;14.07;3.75;;;;;;;;;;4957443;28;20057;-69
2023/06/09 10:59:03;;;;;;;19.35;3.92;;;;;;;;;;4959961;28;20046;-69
2023/06/09 11:01:30;;;;;;;12.10;3.70;;;;;;;;;;4957482;28;20030;-69
2023/06/09 11:03:56;;;;;;;13.15;4.05;;;;;;;;;;4961968;28;20088;-69
2023/06/09 11:06:22;;;;;;;15.93;4.10;;;;;;;;;;4957626;28;20061;-69
2023/06/09 11:09:02;;;;;;;12.63;3.42;;;;;;;;;;4959764;28;20438;-69
2023/06/09 11:11:47;;;;;;;14.68;3.75;;;;;;;;;;4956535;28;20480;-69
2023/06/09 11:14:33;;;;;;;14.52;3.92;;;;;;;;;;4959237;28;20042;-69
2023/06/09 11:16:59;;;;;;;;;;;;;;;;;;4962248;28;20461;-68
2023/06/09 11:19:25;;;;;;;14.43;4.00;;;;;;;;;;4939951;28;19918;-67
2023/06/09 11:22:04;;;;;;;17.38;3.88;;;;;;;;;;4964203;28;20338;-70
2023/06/09 11:24:46;;;;;;;13.95;4.03;;;;;;;;;;4965891;28;20046;-70
2023/06/09 11:27:19;;;;;;;13.75;3.88;;;;;;;;;;5018274;28;20024;-68
2023/06/09 11:30:04;;;;;;;13.57;3.80;;;;;;;;;;5001264;28;20370;-68
2023/06/09 11:32:47;;;;;;;13.40;3.65;;;;;;;;;;5016552;28;20225;-68
2023/06/09 11:35:26;;;;;;;13.63;4.10;;;;;;;;;;5020162;28;20139;-68
2023/06/09 11:37:52;;;;;;;16.60;3.75;;;;;;;;;;5020684;28;20033;-68
2023/06/09 11:40:19;;;;;;;12.77;3.83;;;;;;;;;;5014823;28;20051;-69
2023/06/09 11:42:48;;;;;;;10.60;3.33;;;;;;;;;;5019207;28;20029;-68
2023/06/09 11:45:15;;;;;;;12.43;3.58;;;;;;;;;;5017396;28;20509;-69
2023/06/09 11:47:42;;;;;;;13.38;3.50;;;;;;;;;;5003304;28;20089;-68
2023/06/09 11:50:12;;;;;;;15.50;3.72;;;;;;;;;;5016977;28;20929;-69
2023/06/09 11:52:42;;;;;;;15.20;4.13;;;;;;;;;;5005229;28;20039;-69
2023/06/09 11:55:09;;;;;;;15.20;3.90;;;;;;;;;;5008527;28;20557;-69
2023/06/09 11:57:36;;;;;;;17.50;3.63;;;;;;;;;;5015740;28;20597;-68
2023/06/09 12:00:17;;;;;;;15.00;3.63;;;;;;;;;;5021637;28;21015;-68
2023/06/09 12:02:45;;;;;;;13.93;3.83;;;;;;;;;;5006576;28;20044;-68
2023/06/09 12:05:12;;;;;;;15.20;3.65;;;;;;;;;;5019170;28;20028;-68
2023/06/09 12:07:38;;;;;;;13.25;3.63;;;;;;;;;;5001652;28;23900;-68
2023/06/09 12:10:05;;;;;;;13.63;3.33;;;;;;;;;;5020790;28;20629;-68
2023/06/09 12:12:31;;;;;;;14.98;3.10;;;;;;;;;;5015092;28;20128;-68
2023/06/09 12:14:57;;;;;;;13.57;3.53;;;;;;;;;;5020867;28;20465;-68
2023/06/09 12:17:23;;;;;;;11.48;3.22;;;;;;;;;;5015069;28;20458;-68
2023/06/09 12:19:51;;;;;;;11.30;3.28;;;;;;;;;;5020002;28;20501;-68
2023/06/09 12:22:17;;;;;;;12.32;3.25;;;;;;;;;;5016694;28;20454;-68
2023/06/09 12:24:44;;;;;;;12.48;3.00;;;;;;;;;;5001480;28;20028;-68
2023/06/09 12:27:11;;;;;;;13.77;3.40;;;;;;;;;;5002351;28;20152;-68
2023/06/09 12:29:38;;;;;;;13.82;3.30;;;;;;;;;;5014479;28;22508;-68
2023/06/09 12:32:04;;;;;;;13.00;3.33;;;;;;;;;;5017463;28;20056;-67
2023/06/09 12:34:31;;;;;;;13.50;3.03;;;;;;;;;;5012029;28;20037;-67
2023/06/09 12:36:57;;;;;;;12.82;2.70;;;;;;;;;;5002308;28;20035;-70
2023/06/09 12:39:25;;;;;;;12.65;3.25;;;;;;;;;;5014697;28;20029;-70
2023/06/09 12:41:51;;;;;;;13.50;3.22;;;;;;;;;;5016574;28;20202;-67
2023/06/09 12:44:22;;;;;;;11.45;2.88;;;;;;;;;;5010875;28;20079;-70
2023/06/09 12:46:54;;;;;;;10.85;3.17;;;;;;;;;;5015092;28;20569;-69
2023/06/09 12:49:31;;;;;;;13.15;3.55;;;;;;;;;;5010328;28;20064;-68
2023/06/09 12:51:58;;;;;;;12.63;3.40;;;;;;;;;;5018336;28;20029;-68
2023/06/09 12:54:25;;;;;;;12.80;3.17;;;;;;;;;;5010076;28;20032;-68
2023/06/09 12:56:51;;;;;;;13.23;3.55;;;;;;;;;;4998074;28;20141;-68
2023/06/09 12:59:18;;;;;;;13.63;3.63;;;;;;;;;;5002249;28;20033;-68
2023/06/09 13:01:47;;;;;;;14.85;3.95;;;;;;;;;;5012187;28;20070;-68
2023/06/09 13:04:14;;;;;;;11.55;3.00;;;;;;;;;;5014720;28;20140;-69
2023/06/09 13:06:40;;;;;;;14.90;3.55;;;;;;;;;;5012917;28;21532;-70
2023/06/09 13:09:06;;;;;;;13.35;3.30;;;;;;;;;;5015117;28;20033;-68
2023/06/09 13:11:33;;;;;;;12.60;3.65;;;;;;;;;;5014474;28;20028;-68
2023/06/09 13:13:59;;;;;;;14.82;3.50;;;;;;;;;;5017100;28;20063;-68
2023/06/09 13:16:25;;;;;;;10.73;3.10;;;;;;;;;;5014662;28;20055;-68
2023/06/09 13:18:51;;;;;;;13.23;3.70;;;;;;;;;;5016883;28;20021;-70
2023/06/09 13:21:17;;;;;;;11.20;3.00;;;;;;;;;;5014713;28;20025;-70
2023/06/09 13:23:43;;;;;;;14.60;3.53;;;;;;;;;;5019998;28;20368;-70
2023/06/09 13:26:10;;;;;;;11.57;3.05;;;;;;;;;;5016804;28;20136;-70
2023/06/09 13:28:37;;;;;;;13.23;3.25;;;;;;;;;;5013575;28;20029;-68
2023/06/09 13:31:03;;;;;;;12.43;3.08;;;;;;;;;;5017397;28;20029;-69
2023/06/09 13:33:29;;;;;;;11.65;2.78;;;;;;;;;;4995952;28;20080;-68
2023/06/09 13:35:56;;;;;;;12.07;3.13;;;;;;;;;;5016162;28;20135;-68
2023/06/09 13:38:22;;;;;;;12.13;3.33;;;;;;;;;;5013468;28;20160;-68
2023/06/09 13:40:49;;;;;;;11.32;2.83;;;;;;;;;;5016458;28;20214;-68
2023/06/09 13:43:16;;;;;;;14.02;3.10;;;;;;;;;;5019546;28;21198;-68
2023/06/09 13:45:43;;;;;;;10.95;2.88;;;;;;;;;;5000619;28;20029;-68
2023/06/09 13:48:09;;;;;;;11.55;2.78;;;;;;;;;;4999678;28;20117;-68
2023/06/09 13:50:36;;;;;;;11.48;3.05;;;;;;;;;;5011612;28;20026;-68
2023/06/09 13:53:02;;;;;;;10.23;3.10;;;;;;;;;;5016526;28;20274;-68
2023/06/09 13:55:29;;;;;;;12.52;3.10;;;;;;;;;;4997099;28;20425;-68
2023/06/09 13:57:55;;;;;;;11.10;3.13;;;;;;;;;;5018239;28;20033;-68
2023/06/09 14:00:22;;;;;;;13.60;3.60;;;;;;;;;;4996290;28;20035;-68
2023/06/09 14:02:48;;;;;;;13.18;3.28;;;;;;;;;;5021959;28;20041;-68
2023/06/09 14:05:14;;;;;;;12.65;3.08;;;;;;;;;;4999876;28;20132;-68
2023/06/09 14:07:46;;;;;;;12.93;3.20;;;;;;;;;;5011591;28;20033;-70
2023/06/09 14:10:13;;;;;;;14.38;3.03;;;;;;;;;;4996100;28;20078;-68
2023/06/09 14:12:39;;;;;;;15.13;3.25;;;;;;;;;;4997595;28;20699;-70
2023/06/09 14:15:12;;;;;;;10.93;2.95;;;;;;;;;;5001410;28;20105;-68
2023/06/09 14:17:38;;;;;;;12.18;3.45;;;;;;;;;;4993862;28;20641;-68
2023/06/09 14:20:05;;;;;;;12.43;3.33;;;;;;;;;;4997790;28;20033;-70
2023/06/09 14:22:31;;;;;;;14.50;3.97;;;;;;;;;;4999023;28;20044;-68
2023/06/09 14:24:57;;;;;;;12.82;3.53;;;;;;;;;;5015222;28;20024;-69
2023/06/09 14:27:24;;;;;;;14.75;3.78;;;;;;;;;;5003835;28;20107;-69
2023/06/09 14:29:50;;;;;;;11.55;3.35;;;;;;;;;;5015249;28;20030;-69
2023/06/09 14:32:17;;;;;;;13.23;3.40;;;;;;;;;;5019202;28;20136;-69
2023/06/09 14:34:43;;;;;;;13.43;3.33;;;;;;;;;;5020415;28;20118;-70